sensor_id;sensor_type;location;lat;lon;timestamp;P1;durP1;ratioP1;P2;durP2;ratioP2
31130;SDS011;20292;50.944;4.034;2023-11-22T00:02:01;42.40;;;23.40;;
31130;SDS011;20292;50.944;4.034;2023-11-22T00:04:26;42.08;;;22.70;;
31130;SDS011;20292;50.944;4.034;2023-11-22T00:06:52;41.38;;;22.15;;
31130;SDS011;20292;50.944;4.034;2023-11-22T00:09:17;37.72;;;21.23;;
31130;SDS011;20292;50.944;4.034;2023-11-22T00:11:47;35.97;;;21.73;;
31130;SDS011;20292;50.944;4.034;2023-11-22T00:14:12;41.42;;;20.63;;
31130;SDS011;20292;50.944;4.034;2023-11-22T00:16:38;34.88;;;19.98;;
31130;SDS011;20292;50.944;4.034;2023-11-22T00:19:04;41.35;;;22.23;;
31130;SDS011;20292;50.944;4.034;2023-11-22T00:21:31;36.83;;;21.50;;
31130;SDS011;20292;50.944;4.034;2023-11-22T00:23:57;38.83;;;21.50;;
31130;SDS011;20292;50.944;4.034;2023-11-22T00:26:22;41.17;;;21.20;;
31130;SDS011;20292;50.944;4.034;2023-11-22T00:28:48;42.33;;;22.45;;
31130;SDS011;20292;50.944;4.034;2023-11-22T00:31:14;38.40;;;21.58;;
31130;SDS011;20292;50.944;4.034;2023-11-22T00:33:40;39.45;;;21.42;;
31130;SDS011;20292;50.944;4.034;2023-11-22T00:36:05;41.50;;;21.77;;
31130;SDS011;20292;50.944;4.034;2023-11-22T00:38:33;43.03;;;22.23;;
31130;SDS011;20292;50.944;4.034;2023-11-22T00:41:01;40.28;;;21.90;;
31130;SDS011;20292;50.944;4.034;2023-11-22T00:43:27;38.55;;;20.88;;
31130;SDS011;20292;50.944;4.034;2023-11-22T00:45:52;39.80;;;22.60;;
31130;SDS011;20292;50.944;4.034;2023-11-22T00:48:18;43.10;;;22.25;;
31130;SDS011;20292;50.944;4.034;2023-11-22T00:50:44;39.28;;;21.20;;
31130;SDS011;20292;50.944;4.034;2023-11-22T00:53:11;45.78;;;21.85;;
31130;SDS011;20292;50.944;4.034;2023-11-22T00:55:36;41.28;;;21.85;;
31130;SDS011;20292;50.944;4.034;2023-11-22T00:58:02;39.08;;;21.40;;
31130;SDS011;20292;50.944;4.034;2023-11-22T01:00:30;38.28;;;21.80;;
31130;SDS011;20292;50.944;4.034;2023-11-22T01:02:56;37.80;;;20.88;;
31130;SDS011;20292;50.944;4.034;2023-11-22T01:05:22;39.85;;;22.40;;
31130;SDS011;20292;50.944;4.034;2023-11-22T01:07:47;41.58;;;22.10;;
31130;SDS011;20292;50.944;4.034;2023-11-22T01:10:13;42.08;;;21.88;;
31130;SDS011;20292;50.944;4.034;2023-11-22T01:12:40;39.20;;;22.25;;
31130;SDS011;20292;50.944;4.034;2023-11-22T01:15:06;39.17;;;21.80;;
31130;SDS011;20292;50.944;4.034;2023-11-22T01:17:33;41.05;;;23.15;;
31130;SDS011;20292;50.944;4.034;2023-11-22T01:19:59;42.00;;;21.55;;
31130;SDS011;20292;50.944;4.034;2023-11-22T01:22:25;41.83;;;21.95;;
31130;SDS011;20292;50.944;4.034;2023-11-22T01:24:51;45.42;;;22.73;;
31130;SDS011;20292;50.944;4.034;2023-11-22T01:27:16;39.03;;;21.92;;
31130;SDS011;20292;50.944;4.034;2023-11-22T01:29:42;39.45;;;22.35;;
31130;SDS011;20292;50.944;4.034;2023-11-22T01:32:08;39.03;;;22.27;;
31130;SDS011;20292;50.944;4.034;2023-11-22T01:34:34;43.67;;;23.33;;
31130;SDS011;20292;50.944;4.034;2023-11-22T01:37:00;39.80;;;22.52;;
31130;SDS011;20292;50.944;4.034;2023-11-22T01:39:25;40.58;;;22.85;;
31130;SDS011;20292;50.944;4.034;2023-11-22T01:41:51;39.85;;;22.00;;
31130;SDS011;20292;50.944;4.034;2023-11-22T01:44:17;39.72;;;22.20;;
31130;SDS011;20292;50.944;4.034;2023-11-22T01:46:46;43.85;;;21.80;;
31130;SDS011;20292;50.944;4.034;2023-11-22T01:49:11;40.85;;;23.27;;
31130;SDS011;20292;50.944;4.034;2023-11-22T01:51:38;44.40;;;22.50;;
31130;SDS011;20292;50.944;4.034;2023-11-22T01:54:05;38.90;;;21.65;;
31130;SDS011;20292;50.944;4.034;2023-11-22T01:56:32;42.00;;;22.30;;
31130;SDS011;20292;50.944;4.034;2023-11-22T01:59:02;40.05;;;22.23;;
31130;SDS011;20292;50.944;4.034;2023-11-22T02:01:28;39.40;;;21.35;;
31130;SDS011;20292;50.944;4.034;2023-11-22T02:03:54;40.47;;;21.77;;
31130;SDS011;20292;50.944;4.034;2023-11-22T02:06:20;38.25;;;21.70;;
31130;SDS011;20292;50.944;4.034;2023-11-22T02:08:46;39.63;;;20.85;;
31130;SDS011;20292;50.944;4.034;2023-11-22T02:11:12;37.97;;;21.60;;
31130;SDS011;20292;50.944;4.034;2023-11-22T02:13:38;41.20;;;21.10;;
31130;SDS011;20292;50.944;4.034;2023-11-22T02:16:04;38.28;;;20.88;;
31130;SDS011;20292;50.944;4.034;2023-11-22T02:18:30;36.90;;;21.15;;
31130;SDS011;20292;50.944;4.034;2023-11-22T02:20:56;36.78;;;20.38;;
31130;SDS011;20292;50.944;4.034;2023-11-22T02:23:22;33.70;;;18.38;;
31130;SDS011;20292;50.944;4.034;2023-11-22T02:25:47;34.97;;;18.52;;
31130;SDS011;20292;50.944;4.034;2023-11-22T02:28:13;34.08;;;19.27;;
31130;SDS011;20292;50.944;4.034;2023-11-22T02:30:39;37.38;;;19.23;;
31130;SDS011;20292;50.944;4.034;2023-11-22T02:33:05;33.10;;;19.10;;
31130;SDS011;20292;50.944;4.034;2023-11-22T02:35:31;33.40;;;18.63;;
31130;SDS011;20292;50.944;4.034;2023-11-22T02:38:00;31.50;;;18.08;;
31130;SDS011;20292;50.944;4.034;2023-11-22T02:40:26;37.20;;;19.85;;
31130;SDS011;20292;50.944;4.034;2023-11-22T02:42:53;37.97;;;20.23;;
31130;SDS011;20292;50.944;4.034;2023-11-22T02:45:20;32.47;;;18.83;;
31130;SDS011;20292;50.944;4.034;2023-11-22T02:47:48;35.63;;;19.20;;
31130;SDS011;20292;50.944;4.034;2023-11-22T02:50:14;34.60;;;19.55;;
31130;SDS011;20292;50.944;4.034;2023-11-22T02:52:40;35.03;;;19.70;;
31130;SDS011;20292;50.944;4.034;2023-11-22T02:55:07;35.55;;;18.52;;
31130;SDS011;20292;50.944;4.034;2023-11-22T02:57:36;34.25;;;19.10;;
31130;SDS011;20292;50.944;4.034;2023-11-22T03:00:03;34.53;;;18.08;;
31130;SDS011;20292;50.944;4.034;2023-11-22T03:02:30;36.88;;;18.52;;
31130;SDS011;20292;50.944;4.034;2023-11-22T03:04:57;33.17;;;18.63;;
31130;SDS011;20292;50.944;4.034;2023-11-22T03:07:23;41.35;;;20.70;;
31130;SDS011;20292;50.944;4.034;2023-11-22T03:09:50;38.03;;;18.75;;
31130;SDS011;20292;50.944;4.034;2023-11-22T03:12:16;42.83;;;19.80;;
31130;SDS011;20292;50.944;4.034;2023-11-22T03:14:43;35.85;;;19.60;;
31130;SDS011;20292;50.944;4.034;2023-11-22T03:17:08;34.78;;;18.65;;
31130;SDS011;20292;50.944;4.034;2023-11-22T03:19:34;33.13;;;17.50;;
31130;SDS011;20292;50.944;4.034;2023-11-22T03:22:00;33.58;;;17.90;;
31130;SDS011;20292;50.944;4.034;2023-11-22T03:24:27;34.72;;;18.75;;
31130;SDS011;20292;50.944;4.034;2023-11-22T03:26:54;36.97;;;18.38;;
31130;SDS011;20292;50.944;4.034;2023-11-22T03:29:21;36.40;;;18.75;;
31130;SDS011;20292;50.944;4.034;2023-11-22T03:31:46;32.97;;;19.58;;
31130;SDS011;20292;50.944;4.034;2023-11-22T03:34:13;32.20;;;17.70;;
31130;SDS011;20292;50.944;4.034;2023-11-22T03:36:40;34.85;;;19.52;;
31130;SDS011;20292;50.944;4.034;2023-11-22T03:39:05;33.67;;;18.95;;
31130;SDS011;20292;50.944;4.034;2023-11-22T03:41:31;33.95;;;19.23;;
31130;SDS011;20292;50.944;4.034;2023-11-22T03:43:56;35.25;;;18.88;;
31130;SDS011;20292;50.944;4.034;2023-11-22T03:46:22;36.22;;;19.08;;
31130;SDS011;20292;50.944;4.034;2023-11-22T03:48:47;37.50;;;19.65;;
31130;SDS011;20292;50.944;4.034;2023-11-22T03:51:13;31.67;;;18.80;;
31130;SDS011;20292;50.944;4.034;2023-11-22T03:53:38;31.88;;;18.48;;
31130;SDS011;20292;50.944;4.034;2023-11-22T03:56:04;34.08;;;18.80;;
31130;SDS011;20292;50.944;4.034;2023-11-22T03:58:30;37.65;;;19.30;;
31130;SDS011;20292;50.944;4.034;2023-11-22T04:00:56;36.65;;;19.52;;
31130;SDS011;20292;50.944;4.034;2023-11-22T04:03:23;29.02;;;17.67;;
31130;SDS011;20292;50.944;4.034;2023-11-22T04:05:49;34.08;;;17.20;;
31130;SDS011;20292;50.944;4.034;2023-11-22T04:08:14;32.85;;;17.95;;
31130;SDS011;20292;50.944;4.034;2023-11-22T04:10:40;33.42;;;17.90;;
31130;SDS011;20292;50.944;4.034;2023-11-22T04:13:05;32.80;;;17.73;;
31130;SDS011;20292;50.944;4.034;2023-11-22T04:15:31;33.63;;;17.45;;
31130;SDS011;20292;50.944;4.034;2023-11-22T04:17:57;33.95;;;18.83;;
31130;SDS011;20292;50.944;4.034;2023-11-22T04:20:22;31.65;;;17.42;;
31130;SDS011;20292;50.944;4.034;2023-11-22T04:22:48;32.40;;;16.25;;
31130;SDS011;20292;50.944;4.034;2023-11-22T04:25:13;30.23;;;17.25;;
31130;SDS011;20292;50.944;4.034;2023-11-22T04:27:40;30.42;;;16.13;;
31130;SDS011;20292;50.944;4.034;2023-11-22T04:30:07;31.58;;;17.75;;
31130;SDS011;20292;50.944;4.034;2023-11-22T04:32:38;32.08;;;17.20;;
31130;SDS011;20292;50.944;4.034;2023-11-22T04:35:05;33.45;;;16.55;;
31130;SDS011;20292;50.944;4.034;2023-11-22T04:37:31;35.10;;;16.17;;
31130;SDS011;20292;50.944;4.034;2023-11-22T04:39:59;42.28;;;17.17;;
31130;SDS011;20292;50.944;4.034;2023-11-22T04:42:32;29.00;;;16.77;;
31130;SDS011;20292;50.944;4.034;2023-11-22T04:44:58;32.15;;;17.27;;
31130;SDS011;20292;50.944;4.034;2023-11-22T04:47:24;36.08;;;17.35;;
31130;SDS011;20292;50.944;4.034;2023-11-22T04:49:50;30.05;;;17.63;;
31130;SDS011;20292;50.944;4.034;2023-11-22T04:52:15;31.20;;;17.20;;
31130;SDS011;20292;50.944;4.034;2023-11-22T04:54:41;36.78;;;17.33;;
31130;SDS011;20292;50.944;4.034;2023-11-22T04:57:07;31.55;;;17.48;;
31130;SDS011;20292;50.944;4.034;2023-11-22T04:59:32;32.75;;;18.10;;
31130;SDS011;20292;50.944;4.034;2023-11-22T05:01:58;36.65;;;18.05;;
31130;SDS011;20292;50.944;4.034;2023-11-22T05:04:23;38.35;;;18.52;;
31130;SDS011;20292;50.944;4.034;2023-11-22T05:06:49;37.60;;;17.67;;
31130;SDS011;20292;50.944;4.034;2023-11-22T05:09:14;34.05;;;18.67;;
31130;SDS011;20292;50.944;4.034;2023-11-22T05:11:42;38.03;;;18.02;;
31130;SDS011;20292;50.944;4.034;2023-11-22T05:14:09;35.33;;;17.58;;
31130;SDS011;20292;50.944;4.034;2023-11-22T05:16:35;32.75;;;18.38;;
31130;SDS011;20292;50.944;4.034;2023-11-22T05:19:01;32.83;;;17.77;;
31130;SDS011;20292;50.944;4.034;2023-11-22T05:21:27;35.40;;;18.27;;
31130;SDS011;20292;50.944;4.034;2023-11-22T05:23:52;32.00;;;18.17;;
31130;SDS011;20292;50.944;4.034;2023-11-22T05:26:19;37.13;;;17.77;;
31130;SDS011;20292;50.944;4.034;2023-11-22T05:28:45;35.75;;;18.88;;
31130;SDS011;20292;50.944;4.034;2023-11-22T05:31:12;32.65;;;18.30;;
31130;SDS011;20292;50.944;4.034;2023-11-22T05:33:38;35.55;;;18.50;;
31130;SDS011;20292;50.944;4.034;2023-11-22T05:36:04;39.88;;;20.00;;
31130;SDS011;20292;50.944;4.034;2023-11-22T05:38:31;35.10;;;18.30;;
31130;SDS011;20292;50.944;4.034;2023-11-22T05:40:58;41.25;;;19.13;;
31130;SDS011;20292;50.944;4.034;2023-11-22T05:43:24;33.13;;;18.83;;
31130;SDS011;20292;50.944;4.034;2023-11-22T05:45:51;39.53;;;19.52;;
31130;SDS011;20292;50.944;4.034;2023-11-22T05:48:17;38.80;;;19.70;;
31130;SDS011;20292;50.944;4.034;2023-11-22T05:50:44;34.40;;;19.30;;
31130;SDS011;20292;50.944;4.034;2023-11-22T05:53:10;31.20;;;18.30;;
31130;SDS011;20292;50.944;4.034;2023-11-22T05:55:36;38.13;;;18.60;;
31130;SDS011;20292;50.944;4.034;2023-11-22T05:58:02;48.50;;;20.00;;
31130;SDS011;20292;50.944;4.034;2023-11-22T06:00:28;37.53;;;19.20;;
31130;SDS011;20292;50.944;4.034;2023-11-22T06:02:54;44.03;;;20.25;;
31130;SDS011;20292;50.944;4.034;2023-11-22T06:05:20;39.92;;;20.02;;
31130;SDS011;20292;50.944;4.034;2023-11-22T06:07:46;41.05;;;20.63;;
31130;SDS011;20292;50.944;4.034;2023-11-22T06:10:12;39.53;;;19.42;;
31130;SDS011;20292;50.944;4.034;2023-11-22T06:12:39;51.22;;;21.27;;
31130;SDS011;20292;50.944;4.034;2023-11-22T06:15:05;44.40;;;20.85;;
31130;SDS011;20292;50.944;4.034;2023-11-22T06:17:31;67.78;;;29.38;;
31130;SDS011;20292;50.944;4.034;2023-11-22T06:19:57;48.95;;;24.75;;
31130;SDS011;20292;50.944;4.034;2023-11-22T06:22:22;50.45;;;23.85;;
31130;SDS011;20292;50.944;4.034;2023-11-22T06:24:48;44.95;;;23.10;;
31130;SDS011;20292;50.944;4.034;2023-11-22T06:27:14;40.00;;;21.27;;
31130;SDS011;20292;50.944;4.034;2023-11-22T06:29:42;40.22;;;20.98;;
31130;SDS011;20292;50.944;4.034;2023-11-22T06:32:12;42.67;;;20.33;;
31130;SDS011;20292;50.944;4.034;2023-11-22T06:34:37;42.90;;;22.75;;
31130;SDS011;20292;50.944;4.034;2023-11-22T06:37:03;43.83;;;21.83;;
31130;SDS011;20292;50.944;4.034;2023-11-22T06:39:29;41.00;;;22.00;;
31130;SDS011;20292;50.944;4.034;2023-11-22T06:41:55;42.78;;;21.52;;
31130;SDS011;20292;50.944;4.034;2023-11-22T06:44:21;52.88;;;23.02;;
31130;SDS011;20292;50.944;4.034;2023-11-22T06:46:48;49.17;;;23.15;;
31130;SDS011;20292;50.944;4.034;2023-11-22T06:49:13;44.95;;;22.17;;
31130;SDS011;20292;50.944;4.034;2023-11-22T06:51:39;51.58;;;23.83;;
31130;SDS011;20292;50.944;4.034;2023-11-22T06:54:05;41.75;;;21.70;;
31130;SDS011;20292;50.944;4.034;2023-11-22T06:56:31;46.33;;;22.90;;
31130;SDS011;20292;50.944;4.034;2023-11-22T06:58:57;56.03;;;22.95;;
31130;SDS011;20292;50.944;4.034;2023-11-22T07:01:23;52.47;;;22.95;;
31130;SDS011;20292;50.944;4.034;2023-11-22T07:03:50;42.58;;;22.70;;
31130;SDS011;20292;50.944;4.034;2023-11-22T07:06:17;44.33;;;23.67;;
31130;SDS011;20292;50.944;4.034;2023-11-22T07:08:44;43.22;;;22.15;;
31130;SDS011;20292;50.944;4.034;2023-11-22T07:11:10;53.03;;;22.27;;
31130;SDS011;20292;50.944;4.034;2023-11-22T07:13:36;53.95;;;22.75;;
31130;SDS011;20292;50.944;4.034;2023-11-22T07:16:03;51.17;;;23.58;;
31130;SDS011;20292;50.944;4.034;2023-11-22T07:18:29;55.15;;;24.48;;
31130;SDS011;20292;50.944;4.034;2023-11-22T07:20:56;44.42;;;23.10;;
31130;SDS011;20292;50.944;4.034;2023-11-22T07:23:21;46.95;;;23.17;;
31130;SDS011;20292;50.944;4.034;2023-11-22T07:25:52;49.63;;;23.73;;
31130;SDS011;20292;50.944;4.034;2023-11-22T07:28:17;54.85;;;25.45;;
31130;SDS011;20292;50.944;4.034;2023-11-22T07:30:43;49.45;;;24.05;;
31130;SDS011;20292;50.944;4.034;2023-11-22T07:33:09;49.28;;;24.83;;
31130;SDS011;20292;50.944;4.034;2023-11-22T07:35:35;56.05;;;24.60;;
31130;SDS011;20292;50.944;4.034;2023-11-22T07:38:01;53.90;;;25.95;;
31130;SDS011;20292;50.944;4.034;2023-11-22T07:40:28;46.65;;;26.13;;
31130;SDS011;20292;50.944;4.034;2023-11-22T07:42:54;49.22;;;24.95;;
31130;SDS011;20292;50.944;4.034;2023-11-22T07:45:19;51.33;;;25.75;;
31130;SDS011;20292;50.944;4.034;2023-11-22T07:47:45;50.35;;;25.77;;
31130;SDS011;20292;50.944;4.034;2023-11-22T07:50:12;54.30;;;26.70;;
31130;SDS011;20292;50.944;4.034;2023-11-22T07:52:37;54.33;;;28.52;;
31130;SDS011;20292;50.944;4.034;2023-11-22T07:55:05;58.50;;;28.33;;
31130;SDS011;20292;50.944;4.034;2023-11-22T07:57:34;58.15;;;29.42;;
31130;SDS011;20292;50.944;4.034;2023-11-22T08:00:00;55.58;;;28.88;;
31130;SDS011;20292;50.944;4.034;2023-11-22T08:02:29;59.42;;;29.65;;
31130;SDS011;20292;50.944;4.034;2023-11-22T08:04:55;52.83;;;28.23;;
31130;SDS011;20292;50.944;4.034;2023-11-22T08:07:21;54.20;;;27.95;;
31130;SDS011;20292;50.944;4.034;2023-11-22T08:09:47;56.35;;;28.67;;
31130;SDS011;20292;50.944;4.034;2023-11-22T08:12:13;59.63;;;30.13;;
31130;SDS011;20292;50.944;4.034;2023-11-22T08:14:38;58.47;;;29.40;;
31130;SDS011;20292;50.944;4.034;2023-11-22T08:17:05;55.05;;;29.25;;
31130;SDS011;20292;50.944;4.034;2023-11-22T08:19:31;59.20;;;28.30;;
31130;SDS011;20292;50.944;4.034;2023-11-22T08:21:56;54.83;;;31.52;;
31130;SDS011;20292;50.944;4.034;2023-11-22T08:24:22;55.55;;;31.20;;
31130;SDS011;20292;50.944;4.034;2023-11-22T08:26:48;55.75;;;31.08;;
31130;SDS011;20292;50.944;4.034;2023-11-22T08:29:13;61.33;;;31.40;;
31130;SDS011;20292;50.944;4.034;2023-11-22T08:31:39;62.78;;;31.02;;
31130;SDS011;20292;50.944;4.034;2023-11-22T08:34:05;66.60;;;33.10;;
31130;SDS011;20292;50.944;4.034;2023-11-22T08:36:32;69.28;;;36.10;;
31130;SDS011;20292;50.944;4.034;2023-11-22T08:39:02;69.80;;;34.65;;
31130;SDS011;20292;50.944;4.034;2023-11-22T08:41:29;70.50;;;35.47;;
31130;SDS011;20292;50.944;4.034;2023-11-22T08:43:55;65.43;;;33.35;;
31130;SDS011;20292;50.944;4.034;2023-11-22T08:46:21;63.97;;;33.42;;
31130;SDS011;20292;50.944;4.034;2023-11-22T08:48:48;61.00;;;33.72;;
31130;SDS011;20292;50.944;4.034;2023-11-22T08:51:15;67.70;;;33.33;;
31130;SDS011;20292;50.944;4.034;2023-11-22T08:53:41;66.22;;;34.42;;
31130;SDS011;20292;50.944;4.034;2023-11-22T08:56:09;62.47;;;31.83;;
31130;SDS011;20292;50.944;4.034;2023-11-22T08:58:36;64.40;;;32.75;;
31130;SDS011;20292;50.944;4.034;2023-11-22T09:01:02;69.63;;;34.28;;
31130;SDS011;20292;50.944;4.034;2023-11-22T09:03:28;69.93;;;31.98;;
31130;SDS011;20292;50.944;4.034;2023-11-22T09:05:54;59.83;;;31.55;;
31130;SDS011;20292;50.944;4.034;2023-11-22T09:08:20;62.95;;;33.33;;
31130;SDS011;20292;50.944;4.034;2023-11-22T09:10:46;61.70;;;31.35;;
31130;SDS011;20292;50.944;4.034;2023-11-22T09:13:12;69.88;;;31.38;;
31130;SDS011;20292;50.944;4.034;2023-11-22T09:15:44;70.45;;;33.08;;
31130;SDS011;20292;50.944;4.034;2023-11-22T09:18:10;64.50;;;31.27;;
31130;SDS011;20292;50.944;4.034;2023-11-22T09:20:37;63.15;;;32.13;;
31130;SDS011;20292;50.944;4.034;2023-11-22T09:23:03;63.33;;;32.78;;
31130;SDS011;20292;50.944;4.034;2023-11-22T09:25:29;63.45;;;31.27;;
31130;SDS011;20292;50.944;4.034;2023-11-22T09:27:56;63.50;;;32.00;;
31130;SDS011;20292;50.944;4.034;2023-11-22T09:30:26;62.08;;;31.65;;
31130;SDS011;20292;50.944;4.034;2023-11-22T09:33:11;69.25;;;32.65;;
31130;SDS011;20292;50.944;4.034;2023-11-22T09:35:39;64.78;;;31.90;;
31130;SDS011;20292;50.944;4.034;2023-11-22T09:38:06;70.45;;;33.97;;
31130;SDS011;20292;50.944;4.034;2023-11-22T09:40:41;69.10;;;33.92;;
31130;SDS011;20292;50.944;4.034;2023-11-22T09:43:08;67.60;;;33.28;;
31130;SDS011;20292;50.944;4.034;2023-11-22T09:45:35;61.38;;;32.58;;
31130;SDS011;20292;50.944;4.034;2023-11-22T09:48:02;66.18;;;33.15;;
31130;SDS011;20292;50.944;4.034;2023-11-22T09:53:10;71.50;;;34.38;;
31130;SDS011;20292;50.944;4.034;2023-11-22T09:55:39;73.30;;;35.45;;
31130;SDS011;20292;50.944;4.034;2023-11-22T09:58:08;84.13;;;37.15;;
31130;SDS011;20292;50.944;4.034;2023-11-22T10:00:37;77.35;;;37.15;;
31130;SDS011;20292;50.944;4.034;2023-11-22T10:03:06;69.38;;;33.22;;
31130;SDS011;20292;50.944;4.034;2023-11-22T10:05:31;68.45;;;33.67;;
31130;SDS011;20292;50.944;4.034;2023-11-22T10:07:57;60.25;;;30.63;;
31130;SDS011;20292;50.944;4.034;2023-11-22T10:10:22;56.42;;;28.35;;
31130;SDS011;20292;50.944;4.034;2023-11-22T10:12:53;61.40;;;30.50;;
31130;SDS011;20292;50.944;4.034;2023-11-22T10:15:21;57.35;;;29.63;;
31130;SDS011;20292;50.944;4.034;2023-11-22T10:17:53;66.85;;;32.17;;
31130;SDS011;20292;50.944;4.034;2023-11-22T10:20:21;59.42;;;29.50;;
31130;SDS011;20292;50.944;4.034;2023-11-22T10:22:59;58.38;;;29.58;;
31130;SDS011;20292;50.944;4.034;2023-11-22T10:25:25;62.38;;;29.75;;
31130;SDS011;20292;50.944;4.034;2023-11-22T10:27:51;58.15;;;29.65;;
31130;SDS011;20292;50.944;4.034;2023-11-22T10:30:17;58.97;;;29.95;;
31130;SDS011;20292;50.944;4.034;2023-11-22T10:32:43;59.90;;;29.35;;
31130;SDS011;20292;50.944;4.034;2023-11-22T10:35:09;62.90;;;29.23;;
31130;SDS011;20292;50.944;4.034;2023-11-22T10:37:39;62.60;;;30.80;;
31130;SDS011;20292;50.944;4.034;2023-11-22T10:40:09;58.90;;;29.77;;
31130;SDS011;20292;50.944;4.034;2023-11-22T10:42:37;56.92;;;29.67;;
31130;SDS011;20292;50.944;4.034;2023-11-22T10:45:05;58.17;;;29.40;;
31130;SDS011;20292;50.944;4.034;2023-11-22T10:47:34;58.13;;;28.75;;
31130;SDS011;20292;50.944;4.034;2023-11-22T10:50:03;56.22;;;28.98;;
31130;SDS011;20292;50.944;4.034;2023-11-22T10:52:33;63.72;;;30.02;;
31130;SDS011;20292;50.944;4.034;2023-11-22T10:55:02;47.42;;;26.25;;
31130;SDS011;20292;50.944;4.034;2023-11-22T10:57:31;55.83;;;27.27;;
31130;SDS011;20292;50.944;4.034;2023-11-22T11:00:02;54.72;;;27.08;;
31130;SDS011;20292;50.944;4.034;2023-11-22T11:02:34;50.25;;;25.02;;
31130;SDS011;20292;50.944;4.034;2023-11-22T11:05:06;47.40;;;26.45;;
31130;SDS011;20292;50.944;4.034;2023-11-22T11:07:41;50.58;;;27.30;;
31130;SDS011;20292;50.944;4.034;2023-11-22T11:10:14;48.35;;;27.08;;
31130;SDS011;20292;50.944;4.034;2023-11-22T11:12:41;51.35;;;27.77;;
31130;SDS011;20292;50.944;4.034;2023-11-22T11:15:08;52.00;;;28.23;;
31130;SDS011;20292;50.944;4.034;2023-11-22T11:17:34;56.65;;;29.52;;
31130;SDS011;20292;50.944;4.034;2023-11-22T11:20:02;57.88;;;28.38;;
31130;SDS011;20292;50.944;4.034;2023-11-22T11:22:31;54.35;;;27.95;;
31130;SDS011;20292;50.944;4.034;2023-11-22T11:25:01;51.05;;;27.73;;
31130;SDS011;20292;50.944;4.034;2023-11-22T11:27:29;55.90;;;27.70;;
31130;SDS011;20292;50.944;4.034;2023-11-22T11:29:57;48.15;;;26.00;;
31130;SDS011;20292;50.944;4.034;2023-11-22T11:32:32;48.13;;;26.83;;
31130;SDS011;20292;50.944;4.034;2023-11-22T11:34:58;48.00;;;25.63;;
31130;SDS011;20292;50.944;4.034;2023-11-22T11:37:25;46.45;;;24.20;;
31130;SDS011;20292;50.944;4.034;2023-11-22T11:39:54;42.10;;;23.85;;
31130;SDS011;20292;50.944;4.034;2023-11-22T11:42:20;47.55;;;25.23;;
31130;SDS011;20292;50.944;4.034;2023-11-22T11:45:04;42.03;;;25.88;;
31130;SDS011;20292;50.944;4.034;2023-11-22T11:47:31;47.85;;;27.98;;
31130;SDS011;20292;50.944;4.034;2023-11-22T11:49:58;45.72;;;25.60;;
31130;SDS011;20292;50.944;4.034;2023-11-22T11:52:27;45.90;;;25.52;;
31130;SDS011;20292;50.944;4.034;2023-11-22T11:54:52;43.63;;;24.90;;
31130;SDS011;20292;50.944;4.034;2023-11-22T11:57:18;41.30;;;24.55;;
31130;SDS011;20292;50.944;4.034;2023-11-22T11:59:44;41.25;;;23.17;;
31130;SDS011;20292;50.944;4.034;2023-11-22T12:02:11;38.63;;;21.17;;
31130;SDS011;20292;50.944;4.034;2023-11-22T12:04:36;37.78;;;21.23;;
31130;SDS011;20292;50.944;4.034;2023-11-22T12:07:02;35.50;;;20.38;;
31130;SDS011;20292;50.944;4.034;2023-11-22T12:09:28;37.92;;;21.20;;
31130;SDS011;20292;50.944;4.034;2023-11-22T12:11:54;35.45;;;20.83;;
31130;SDS011;20292;50.944;4.034;2023-11-22T12:14:20;34.63;;;21.27;;
31130;SDS011;20292;50.944;4.034;2023-11-22T12:16:50;34.80;;;19.98;;
31130;SDS011;20292;50.944;4.034;2023-11-22T12:19:21;36.58;;;21.25;;
31130;SDS011;20292;50.944;4.034;2023-11-22T12:21:52;35.13;;;19.38;;
31130;SDS011;20292;50.944;4.034;2023-11-22T12:24:18;34.60;;;19.38;;
31130;SDS011;20292;50.944;4.034;2023-11-22T12:26:45;31.42;;;18.98;;
31130;SDS011;20292;50.944;4.034;2023-11-22T12:29:14;33.55;;;17.90;;
31130;SDS011;20292;50.944;4.034;2023-11-22T12:31:46;36.58;;;19.50;;
31130;SDS011;20292;50.944;4.034;2023-11-22T12:34:15;36.92;;;18.92;;
31130;SDS011;20292;50.944;4.034;2023-11-22T12:36:42;37.47;;;19.13;;
31130;SDS011;20292;50.944;4.034;2023-11-22T12:39:08;36.63;;;20.10;;
31130;SDS011;20292;50.944;4.034;2023-11-22T12:41:42;38.78;;;20.83;;
31130;SDS011;20292;50.944;4.034;2023-11-22T12:44:08;35.90;;;19.70;;
31130;SDS011;20292;50.944;4.034;2023-11-22T12:46:46;39.15;;;20.65;;
31130;SDS011;20292;50.944;4.034;2023-11-22T12:49:14;38.60;;;19.88;;
31130;SDS011;20292;50.944;4.034;2023-11-22T12:51:45;38.03;;;21.00;;
31130;SDS011;20292;50.944;4.034;2023-11-22T12:54:14;38.63;;;21.35;;
31130;SDS011;20292;50.944;4.034;2023-11-22T12:56:41;36.20;;;19.50;;
31130;SDS011;20292;50.944;4.034;2023-11-22T12:59:06;38.92;;;20.83;;
31130;SDS011;20292;50.944;4.034;2023-11-22T13:01:33;31.05;;;18.77;;
31130;SDS011;20292;50.944;4.034;2023-11-22T13:04:00;35.90;;;20.10;;
31130;SDS011;20292;50.944;4.034;2023-11-22T13:06:25;37.95;;;20.23;;
31130;SDS011;20292;50.944;4.034;2023-11-22T13:08:51;39.45;;;20.95;;
31130;SDS011;20292;50.944;4.034;2023-11-22T13:11:18;34.60;;;19.33;;
31130;SDS011;20292;50.944;4.034;2023-11-22T13:13:44;37.72;;;20.33;;
31130;SDS011;20292;50.944;4.034;2023-11-22T13:16:11;35.38;;;18.73;;
31130;SDS011;20292;50.944;4.034;2023-11-22T13:18:40;34.65;;;19.70;;
31130;SDS011;20292;50.944;4.034;2023-11-22T13:21:06;37.60;;;19.30;;
31130;SDS011;20292;50.944;4.034;2023-11-22T13:23:32;35.83;;;19.27;;
31130;SDS011;20292;50.944;4.034;2023-11-22T13:25:58;41.67;;;21.27;;
31130;SDS011;20292;50.944;4.034;2023-11-22T13:28:23;36.03;;;20.80;;
31130;SDS011;20292;50.944;4.034;2023-11-22T13:30:50;37.70;;;20.52;;
31130;SDS011;20292;50.944;4.034;2023-11-22T13:33:16;37.22;;;20.20;;
31130;SDS011;20292;50.944;4.034;2023-11-22T13:35:42;36.00;;;21.42;;
31130;SDS011;20292;50.944;4.034;2023-11-22T13:38:09;37.85;;;20.40;;
31130;SDS011;20292;50.944;4.034;2023-11-22T13:40:37;36.90;;;20.30;;
31130;SDS011;20292;50.944;4.034;2023-11-22T13:43:05;39.05;;;21.90;;
31130;SDS011;20292;50.944;4.034;2023-11-22T13:45:31;39.70;;;21.23;;
31130;SDS011;20292;50.944;4.034;2023-11-22T13:47:58;39.80;;;19.33;;
31130;SDS011;20292;50.944;4.034;2023-11-22T13:50:31;32.83;;;19.35;;
31130;SDS011;20292;50.944;4.034;2023-11-22T13:52:58;42.83;;;22.30;;
31130;SDS011;20292;50.944;4.034;2023-11-22T13:55:24;39.17;;;20.42;;
31130;SDS011;20292;50.944;4.034;2023-11-22T13:57:55;36.65;;;19.83;;
31130;SDS011;20292;50.944;4.034;2023-11-22T14:00:23;35.08;;;19.15;;
31130;SDS011;20292;50.944;4.034;2023-11-22T14:02:52;33.47;;;19.20;;
31130;SDS011;20292;50.944;4.034;2023-11-22T14:05:20;38.80;;;20.63;;
31130;SDS011;20292;50.944;4.034;2023-11-22T14:07:49;40.03;;;21.40;;
31130;SDS011;20292;50.944;4.034;2023-11-22T14:10:17;39.50;;;20.60;;
31130;SDS011;20292;50.944;4.034;2023-11-22T14:12:43;35.35;;;19.23;;
31130;SDS011;20292;50.944;4.034;2023-11-22T14:15:09;32.60;;;18.48;;
31130;SDS011;20292;50.944;4.034;2023-11-22T14:17:36;31.83;;;18.75;;
31130;SDS011;20292;50.944;4.034;2023-11-22T14:20:04;36.72;;;18.02;;
31130;SDS011;20292;50.944;4.034;2023-11-22T14:22:32;36.83;;;19.63;;